Time;durP1;ratioP1;P1;durP2;ratioP2;P2;SDS_P1;SDS_P2;PMS_P1;PMS_P2;Temp;Humidity;BMP_temperature;BMP_pressure;BME280_temperature;BME280_humidity;BME280_pressure;Samples;Min_cycle;Max_cycle;Signal;HPM_P1;HPM_P2
2023/04/26 00:00:42;;;;;;;4.60;2.78;;;4.40;99.90;;;;;;5028917;28;20040;-67
2023/04/26 00:03:08;;;;;;;8.65;2.53;;;4.30;99.90;;;;;;5028375;28;20071;-67
2023/04/26 00:05:36;;;;;;;8.95;1.95;;;4.30;99.90;;;;;;5029559;28;20029;-67
2023/04/26 00:08:03;;;;;;;9.68;2.20;;;4.20;99.90;;;;;;5027084;28;20485;-68
2023/04/26 00:10:28;;;;;;;8.63;1.85;;;4.20;99.90;;;;;;5029413;28;20040;-67
2023/04/26 00:12:54;;;;;;;5.10;2.28;;;4.10;99.90;;;;;;5029516;28;20030;-66
2023/04/26 00:15:19;;;;;;;8.38;2.20;;;4.10;99.90;;;;;;5028962;28;20026;-66
2023/04/26 00:17:46;;;;;;;9.32;1.98;;;4.10;99.90;;;;;;5029864;28;20054;-66
2023/04/26 00:20:12;;;;;;;9.82;2.25;;;4.00;99.90;;;;;;5025766;28;20040;-66
2023/04/26 00:22:38;;;;;;;5.10;1.90;;;4.10;99.90;;;;;;5027759;28;20579;-67
2023/04/26 00:25:04;;;;;;;8.30;2.08;;;4.10;99.90;;;;;;5025603;28;20029;-67
2023/04/26 00:27:30;;;;;;;5.53;1.55;;;4.20;99.90;;;;;;5029518;28;20493;-67
2023/04/26 00:29:56;;;;;;;12.27;1.90;;;4.20;99.90;;;;;;5025744;28;20082;-66
2023/04/26 00:32:22;;;;;;;7.68;1.63;;;4.20;99.90;;;;;;5029416;28;20493;-66
2023/04/26 00:34:47;;;;;;;6.30;1.60;;;4.30;99.90;;;;;;5028350;28;20022;-67
2023/04/26 00:37:13;;;;;;;12.20;2.38;;;4.30;99.90;;;;;;5028549;28;20060;-67
2023/04/26 00:39:38;;;;;;;8.25;2.25;;;4.30;99.90;;;;;;5025602;28;20252;-67
2023/04/26 00:42:04;;;;;;;7.47;1.83;;;4.30;99.90;;;;;;5031752;28;20025;-67
2023/04/26 00:44:30;;;;;;;13.38;2.47;;;4.30;99.90;;;;;;5028659;28;20033;-67
2023/04/26 00:46:55;;;;;;;9.95;2.72;;;4.30;99.90;;;;;;5030192;28;20033;-65
2023/04/26 00:49:23;;;;;;;4.55;2.60;;;4.30;99.90;;;;;;5027540;28;20025;-67
2023/04/26 00:51:50;;;;;;;7.03;2.03;;;4.30;99.90;;;;;;5028589;28;20485;-67
2023/04/26 00:54:18;;;;;;;13.88;2.80;;;4.20;99.90;;;;;;5032989;28;20032;-66
2023/04/26 00:56:45;;;;;;;10.95;2.42;;;4.20;99.90;;;;;;5029730;28;20026;-66
2023/04/26 00:59:10;;;;;;;9.45;2.22;;;4.10;99.90;;;;;;5027063;28;20033;-68
2023/04/26 01:01:37;;;;;;;5.93;2.10;;;4.00;99.90;;;;;;5029871;28;20036;-67
2023/04/26 01:04:03;;;;;;;8.07;2.72;;;3.90;99.90;;;;;;5026416;28;20025;-66
2023/04/26 01:06:33;;;;;;;8.60;2.65;;;3.80;99.90;;;;;;5030460;28;20030;-67
2023/04/26 01:09:03;;;;;;;10.02;2.20;;;3.70;99.90;;;;;;5026574;28;20095;-69
2023/04/26 01:11:30;;;;;;;14.73;2.97;;;3.60;99.90;;;;;;5026046;28;20040;-68
2023/04/26 01:13:57;;;;;;;9.60;3.50;;;3.50;99.90;;;;;;5031600;28;20017;-67
2023/04/26 01:16:23;;;;;;;6.68;3.00;;;3.40;99.90;;;;;;5026337;28;20617;-67
2023/04/26 01:18:52;;;;;;;16.20;3.28;;;3.40;99.90;;;;;;5028546;28;20075;-67
2023/04/26 01:21:22;;;;;;;8.95;3.00;;;3.40;99.90;;;;;;5029764;28;20022;-68
2023/04/26 01:23:51;;;;;;;6.15;2.78;;;3.40;99.90;;;;;;5028043;28;20026;-67
2023/04/26 01:26:17;;;;;;;8.32;2.80;;;3.40;99.90;;;;;;5029406;28;20036;-67
2023/04/26 01:28:42;;;;;;;10.60;3.22;;;3.40;99.90;;;;;;5028799;28;20551;-67
2023/04/26 01:31:09;;;;;;;7.95;2.75;;;3.40;99.90;;;;;;5030694;28;20030;-67
2023/04/26 01:33:34;;;;;;;12.20;4.53;;;3.40;99.90;;;;;;5032189;28;20096;-67
2023/04/26 01:36:00;;;;;;;18.20;3.92;;;3.30;99.90;;;;;;5029397;28;20093;-66
2023/04/26 01:38:25;;;;;;;6.30;2.45;;;3.30;99.90;;;;;;5031575;28;20029;-67
2023/04/26 01:40:51;;;;;;;11.10;3.00;;;3.20;99.90;;;;;;5030023;28;20038;-68
2023/04/26 01:43:19;;;;;;;10.00;2.72;;;3.20;99.90;;;;;;5029162;28;20037;-66
2023/04/26 01:45:46;;;;;;;9.75;2.72;;;3.20;99.90;;;;;;5030237;28;20086;-67
2023/04/26 01:48:12;;;;;;;13.25;3.38;;;3.10;99.90;;;;;;5027463;28;20037;-69
2023/04/26 01:50:38;;;;;;;17.88;3.70;;;3.00;99.90;;;;;;5029271;28;20404;-67
2023/04/26 01:53:03;;;;;;;11.07;2.17;;;2.90;99.90;;;;;;5030851;28;20399;-66
2023/04/26 01:55:29;;;;;;;10.10;3.70;;;2.90;99.90;;;;;;5031212;28;20113;-66
2023/04/26 01:57:55;;;;;;;11.65;2.33;;;2.80;99.90;;;;;;5031418;28;20026;-66
2023/04/26 02:00:20;;;;;;;9.30;3.22;;;2.70;99.90;;;;;;5028474;28;20033;-65
2023/04/26 02:02:46;;;;;;;11.10;2.28;;;2.60;99.90;;;;;;5028752;28;20040;-67
2023/04/26 02:05:11;;;;;;;6.90;2.80;;;2.60;99.90;;;;;;5029058;28;20029;-68
2023/04/26 02:07:37;;;;;;;6.55;2.80;;;2.50;99.90;;;;;;5033473;28;20030;-67
2023/04/26 02:10:03;;;;;;;18.33;3.35;;;2.50;99.90;;;;;;5030318;28;20370;-67
2023/04/26 02:12:29;;;;;;;8.88;2.78;;;2.50;99.90;;;;;;5031559;28;20083;-67
2023/04/26 02:14:55;;;;;;;12.68;3.25;;;2.50;99.90;;;;;;5029803;28;20420;-66
2023/04/26 02:17:21;;;;;;;8.25;2.63;;;2.40;99.90;;;;;;5030106;28;20017;-66
2023/04/26 02:19:47;;;;;;;8.85;3.08;;;2.50;99.90;;;;;;5032591;28;20784;-66
2023/04/26 02:22:12;;;;;;;16.40;3.78;;;2.50;99.90;;;;;;5031136;28;20038;-67
2023/04/26 02:24:38;;;;;;;11.13;3.42;;;2.50;99.90;;;;;;5029477;28;20417;-67
2023/04/26 02:27:04;;;;;;;17.17;3.60;;;2.50;99.90;;;;;;5030687;28;20035;-68
2023/04/26 02:29:30;;;;;;;14.15;3.85;;;2.50;99.90;;;;;;5031862;28;20029;-67
2023/04/26 02:31:57;;;;;;;11.27;2.97;;;2.40;99.90;;;;;;5030941;28;20036;-67
2023/04/26 02:34:22;;;;;;;13.40;2.90;;;2.50;99.90;;;;;;5029589;28;20025;-66
2023/04/26 02:36:48;;;;;;;9.93;4.10;;;2.60;99.90;;;;;;5030220;28;20030;-68
2023/04/26 02:39:13;;;;;;;6.35;2.45;;;2.50;99.90;;;;;;5033507;28;20033;-67
2023/04/26 02:41:39;;;;;;;9.20;3.33;;;2.40;99.90;;;;;;5030751;28;20030;-66
2023/04/26 02:44:04;;;;;;;17.90;4.00;;;2.40;99.90;;;;;;5030565;28;20485;-67
2023/04/26 02:46:30;;;;;;;8.73;3.58;;;2.40;99.90;;;;;;5029123;28;20022;-66
2023/04/26 02:48:55;;;;;;;8.50;2.88;;;2.40;99.90;;;;;;5030810;28;20049;-65
2023/04/26 02:51:21;;;;;;;8.10;3.88;;;2.40;99.90;;;;;;5032986;28;20103;-67
2023/04/26 02:53:47;;;;;;;13.80;4.18;;;2.30;99.90;;;;;;5031454;28;20018;-67
2023/04/26 02:56:12;;;;;;;21.05;4.30;;;2.20;99.90;;;;;;5028254;28;20045;-67
2023/04/26 02:58:38;;;;;;;12.57;3.80;;;2.30;99.90;;;;;;5029451;28;20029;-67
2023/04/26 03:01:04;;;;;;;17.50;3.78;;;2.30;99.90;;;;;;5028548;28;20458;-67
2023/04/26 03:03:30;;;;;;;10.48;3.80;;;2.30;99.90;;;;;;5027956;28;20999;-68
2023/04/26 03:05:55;;;;;;;19.15;3.88;;;2.30;99.90;;;;;;5028247;28;20041;-66
2023/04/26 03:08:21;;;;;;;18.42;4.70;;;2.30;99.90;;;;;;5028790;28;20033;-67
2023/04/26 03:10:47;;;;;;;10.48;3.45;;;2.30;99.90;;;;;;5030278;28;20036;-67
2023/04/26 03:13:12;;;;;;;12.30;4.10;;;2.40;99.90;;;;;;5033977;28;20359;-67
2023/04/26 03:15:38;;;;;;;10.48;3.65;;;2.40;99.90;;;;;;5028042;28;20069;-67
2023/04/26 03:18:03;;;;;;;13.95;4.03;;;2.40;99.90;;;;;;5028885;28;20113;-67
2023/04/26 03:20:29;;;;;;;12.18;5.22;;;2.50;99.90;;;;;;5032303;28;20053;-67
2023/04/26 03:22:54;;;;;;;9.30;4.05;;;2.50;99.90;;;;;;5032348;28;20060;-65
2023/04/26 03:25:20;;;;;;;17.58;3.83;;;2.50;99.90;;;;;;5028268;28;20033;-66
2023/04/26 03:27:46;;;;;;;15.70;4.32;;;2.50;99.90;;;;;;5028445;28;20087;-68
2023/04/26 03:30:12;;;;;;;16.65;4.32;;;2.50;99.90;;;;;;5028189;28;20100;-68
2023/04/26 03:32:37;;;;;;;13.60;4.32;;;2.50;99.90;;;;;;5030021;28;20028;-67
2023/04/26 03:35:03;;;;;;;12.40;3.90;;;2.40;99.90;;;;;;5040836;28;20076;-66
2023/04/26 03:37:29;;;;;;;16.23;3.83;;;2.40;99.90;;;;;;5033549;28;20071;-67
2023/04/26 03:39:54;;;;;;;13.23;4.53;;;2.30;99.90;;;;;;5031901;28;20511;-67
2023/04/26 03:42:20;;;;;;;13.80;4.35;;;2.20;99.90;;;;;;5029103;28;20034;-67
2023/04/26 03:44:45;;;;;;;20.08;5.30;;;2.20;99.90;;;;;;5028934;28;20068;-67
2023/04/26 03:47:14;;;;;;;17.10;4.53;;;2.20;99.90;;;;;;5026064;28;20037;-67
2023/04/26 03:49:39;;;;;;;7.68;3.97;;;2.10;99.90;;;;;;5028332;28;20067;-67
2023/04/26 03:52:05;;;;;;;12.90;4.93;;;2.10;99.90;;;;;;5026492;28;20022;-67
2023/04/26 03:54:30;;;;;;;18.00;5.22;;;2.20;99.90;;;;;;5029335;28;20047;-67
2023/04/26 03:56:56;;;;;;;8.80;3.95;;;2.20;99.90;;;;;;5030420;28;20022;-65
2023/04/26 03:59:21;;;;;;;9.82;4.50;;;2.30;99.90;;;;;;5025888;28;21034;-66
2023/04/26 04:01:47;;;;;;;14.52;4.53;;;2.30;99.90;;;;;;5029335;28;20030;-66
2023/04/26 04:04:13;;;;;;;17.00;5.97;;;2.30;99.90;;;;;;5030206;28;20507;-65
2023/04/26 04:06:38;;;;;;;13.85;4.70;;;2.30;99.90;;;;;;5028810;28;20580;-67
2023/04/26 04:09:07;;;;;;;20.30;4.85;;;2.40;99.90;;;;;;5027454;28;20048;-66
2023/04/26 04:11:32;;;;;;;12.52;4.70;;;2.40;99.90;;;;;;5025063;28;20040;-66
2023/04/26 04:13:58;;;;;;;19.52;6.13;;;2.40;99.90;;;;;;5032549;28;20079;-67
2023/04/26 04:16:23;;;;;;;16.75;4.95;;;2.40;99.90;;;;;;5026310;28;20461;-66
2023/04/26 04:18:49;;;;;;;11.75;4.90;;;2.30;99.90;;;;;;5026900;28;20025;-67
2023/04/26 04:21:14;;;;;;;13.25;4.20;;;2.20;99.90;;;;;;5024268;28;20044;-66
2023/04/26 04:23:41;;;;;;;16.55;5.15;;;2.20;99.90;;;;;;5030738;28;20105;-67
2023/04/26 04:26:06;;;;;;;17.40;4.60;;;2.10;99.90;;;;;;5029022;28;20029;-67
2023/04/26 04:28:33;;;;;;;28.73;6.53;;;2.00;99.90;;;;;;5028277;28;20029;-66
2023/04/26 04:30:59;;;;;;;17.40;5.88;;;1.90;99.90;;;;;;5028885;28;20052;-67
2023/04/26 04:33:27;;;;;;;19.48;6.15;;;1.80;99.90;;;;;;5028043;28;20021;-67
2023/04/26 04:35:53;;;;;;;15.95;5.07;;;1.80;99.90;;;;;;5032573;28;20029;-66
2023/04/26 04:38:19;;;;;;;16.30;5.80;;;1.90;99.90;;;;;;5027889;28;20527;-68
2023/04/26 04:40:48;;;;;;;14.90;5.30;;;2.00;99.90;;;;;;5028551;28;20030;-67
2023/04/26 04:43:15;;;;;;;16.08;5.88;;;2.00;99.90;;;;;;5029624;28;20083;-66
2023/04/26 04:45:41;;;;;;;25.75;5.75;;;2.00;99.90;;;;;;5029169;28;20018;-66
2023/04/26 04:48:08;;;;;;;21.75;6.60;;;2.00;99.90;;;;;;5027701;28;20029;-65
2023/04/26 04:50:34;;;;;;;24.65;6.35;;;2.10;99.90;;;;;;5027452;28;20052;-66
2023/04/26 04:53:00;;;;;;;19.20;6.05;;;2.20;99.90;;;;;;5027819;28;20030;-68
2023/04/26 04:55:25;;;;;;;18.90;6.95;;;2.30;99.90;;;;;;5028711;28;20424;-66
2023/04/26 04:57:51;;;;;;;18.40;6.50;;;2.30;99.90;;;;;;5031832;28;20033;-66
2023/04/26 05:00:17;;;;;;;12.93;6.10;;;2.30;99.90;;;;;;5027064;28;20115;-66
2023/04/26 05:02:43;;;;;;;18.08;6.35;;;2.30;99.90;;;;;;5028297;28;20148;-66
2023/04/26 05:05:09;;;;;;;17.40;6.20;;;2.30;99.90;;;;;;5031783;28;20033;-67
2023/04/26 05:07:35;;;;;;;22.23;5.88;;;2.30;99.90;;;;;;5033689;28;20175;-66
2023/04/26 05:10:01;;;;;;;16.40;5.88;;;2.30;99.90;;;;;;5031977;28;20525;-64
2023/04/26 05:12:27;;;;;;;17.35;6.07;;;2.40;99.90;;;;;;5033751;28;20032;-68
2023/04/26 05:14:52;;;;;;;14.70;6.35;;;2.40;99.90;;;;;;5031269;28;20562;-67
2023/04/26 05:17:18;;;;;;;14.00;6.07;;;2.50;99.90;;;;;;5029793;28;20033;-66
2023/04/26 05:19:44;;;;;;;16.13;6.53;;;2.50;99.90;;;;;;5027770;28;20484;-67
2023/04/26 05:22:09;;;;;;;17.77;6.75;;;2.60;99.90;;;;;;5034033;28;20552;-68
2023/04/26 05:24:35;;;;;;;19.88;6.85;;;2.70;99.90;;;;;;5032725;28;20029;-67
2023/04/26 05:27:03;;;;;;;24.23;7.30;;;2.80;99.90;;;;;;5033223;28;20029;-67
2023/04/26 05:29:32;;;;;;;21.90;6.57;;;2.90;99.90;;;;;;5030372;28;20031;-68
2023/04/26 05:31:58;;;;;;;15.32;6.97;;;2.90;99.90;;;;;;5029680;28;20761;-66
2023/04/26 05:34:24;;;;;;;14.65;7.43;;;3.00;99.90;;;;;;5031314;28;20100;-66
2023/04/26 05:36:50;;;;;;;15.68;7.22;;;3.00;99.90;;;;;;5044495;28;20041;-67
2023/04/26 05:39:16;;;;;;;23.55;7.00;;;3.20;99.90;;;;;;5031288;28;20033;-65
2023/04/26 05:41:42;;;;;;;19.65;7.97;;;3.20;99.90;;;;;;5030330;28;20026;-66
2023/04/26 05:44:07;;;;;;;21.02;7.05;;;3.30;99.90;;;;;;5036129;28;20037;-66
2023/04/26 05:46:33;;;;;;;17.40;7.03;;;3.40;99.90;;;;;;5033185;28;20071;-67
2023/04/26 05:48:59;;;;;;;19.15;7.68;;;3.50;99.90;;;;;;5032503;28;20037;-68
2023/04/26 05:51:25;;;;;;;28.95;9.13;;;3.60;99.90;;;;;;5032389;28;20160;-65
2023/04/26 05:53:50;;;;;;;24.42;8.93;;;3.70;99.90;;;;;;5017055;28;20505;-65
2023/04/26 05:56:16;;;;;;;31.85;9.43;;;3.80;99.90;;;;;;5031067;28;20025;-66
2023/04/26 05:58:42;;;;;;;21.60;8.90;;;3.90;99.90;;;;;;5013400;28;20034;-64
2023/04/26 06:01:07;;;;;;;31.20;8.80;;;4.10;99.90;;;;;;5041460;28;21874;-66
2023/04/26 06:03:33;;;;;;;23.95;9.20;;;4.10;99.90;;;;;;5013779;28;20083;-66
2023/04/26 06:05:59;;;;;;;20.33;8.10;;;4.20;99.90;;;;;;5033248;28;20033;-65
2023/04/26 06:08:25;;;;;;;23.13;8.07;;;4.30;99.90;;;;;;5031269;28;20109;-67
2023/04/26 06:10:50;;;;;;;26.38;9.40;;;4.50;99.90;;;;;;5032774;28;20473;-67
2023/04/26 06:13:16;;;;;;;26.80;8.10;;;4.60;99.90;;;;;;5037249;28;20036;-66
2023/04/26 06:15:41;;;;;;;44.60;9.38;;;4.70;99.90;;;;;;5019211;28;20448;-65
2023/04/26 06:18:07;;;;;;;23.05;8.63;;;4.80;99.90;;;;;;5033757;28;20400;-64
2023/04/26 06:20:33;;;;;;;27.83;8.30;;;4.90;99.90;;;;;;5046695;28;20488;-67
2023/04/26 06:22:58;;;;;;;19.15;7.13;;;4.90;99.90;;;;;;5032045;28;20029;-66
2023/04/26 06:25:24;;;;;;;28.67;8.15;;;5.00;99.90;;;;;;5029565;28;20179;-66
2023/04/26 06:27:49;;;;;;;25.00;7.97;;;5.10;99.90;;;;;;5030996;28;20476;-65
2023/04/26 06:30:15;;;;;;;22.92;7.38;;;5.20;99.90;;;;;;5029065;28;20099;-66
2023/04/26 06:32:41;;;;;;;25.75;7.45;;;5.30;99.90;;;;;;5031648;28;20022;-64
2023/04/26 06:35:07;;;;;;;23.70;6.97;;;5.40;99.90;;;;;;5032928;28;20104;-64
2023/04/26 06:37:33;;;;;;;20.52;5.82;;;5.50;99.90;;;;;;5028436;28;20101;-64
2023/04/26 06:39:58;;;;;;;21.67;6.38;;;5.50;99.90;;;;;;5029395;28;20100;-64
2023/04/26 06:42:24;;;;;;;31.80;7.32;;;5.70;99.90;;;;;;5030908;28;20041;-66
2023/04/26 06:44:50;;;;;;;18.15;6.22;;;5.80;99.90;;;;;;5031909;28;20032;-63
2023/04/26 06:47:15;;;;;;;16.08;5.75;;;5.90;99.90;;;;;;5031462;28;20112;-65
2023/04/26 06:49:41;;;;;;;22.27;6.60;;;5.90;99.90;;;;;;5030774;28;21912;-66
2023/04/26 06:52:06;;;;;;;26.20;6.82;;;6.00;99.90;;;;;;5032816;28;20040;-65
2023/04/26 06:54:32;;;;;;;15.55;5.68;;;6.10;99.90;;;;;;5031115;28;20048;-65
2023/04/26 06:56:58;;;;;;;18.25;4.88;;;6.20;99.90;;;;;;5029420;28;20022;-65
2023/04/26 06:59:24;;;;;;;14.60;5.07;;;6.30;99.90;;;;;;5024087;28;20036;-66
2023/04/26 07:01:50;;;;;;;16.60;4.15;;;6.40;99.90;;;;;;5022491;28;20104;-66
2023/04/26 07:04:17;;;;;;;16.40;5.03;;;6.50;99.90;;;;;;5030824;28;20032;-66
2023/04/26 07:06:43;;;;;;;26.40;6.47;;;6.60;99.90;;;;;;5029062;28;20021;-67
2023/04/26 07:09:08;;;;;;;16.40;5.55;;;6.60;99.90;;;;;;5022935;28;20444;-69
2023/04/26 07:11:34;;;;;;;17.00;5.20;;;6.70;99.90;;;;;;5027209;28;20029;-64
2023/04/26 07:14:00;;;;;;;13.48;5.85;;;6.90;99.90;;;;;;5029150;28;20025;-65
2023/04/26 07:16:26;;;;;;;15.13;6.50;;;7.00;99.90;;;;;;5028126;28;20109;-66
2023/04/26 07:18:52;;;;;;;18.85;5.45;;;7.10;99.90;;;;;;5028814;28;20116;-67
2023/04/26 07:21:17;;;;;;;21.35;6.53;;;7.20;99.90;;;;;;5027288;28;20037;-64
2023/04/26 07:23:43;;;;;;;14.68;5.30;;;7.20;99.90;;;;;;5030905;28;20034;-65
2023/04/26 07:26:11;;;;;;;20.08;5.25;;;7.30;99.90;;;;;;5032340;28;20041;-68
2023/04/26 07:28:37;;;;;;;19.13;5.85;;;7.40;99.90;;;;;;5029388;28;20045;-67
2023/04/26 07:31:03;;;;;;;14.10;4.55;;;7.40;99.90;;;;;;5030121;28;20037;-60
2023/04/26 07:33:29;;;;;;;14.25;4.93;;;7.50;99.90;;;;;;5026142;28;21344;-62
2023/04/26 07:35:56;;;;;;;14.07;4.28;;;7.40;99.90;;;;;;5023699;28;20097;-61
2023/04/26 07:38:22;;;;;;;24.52;5.07;;;7.50;99.90;;;;;;5027229;28;20049;-60
2023/04/26 07:40:49;;;;;;;16.52;5.07;;;7.50;99.90;;;;;;5027247;28;20057;-63
2023/04/26 07:43:15;;;;;;;19.55;4.20;;;7.50;99.90;;;;;;5025872;28;20029;-63
2023/04/26 07:45:41;;;;;;;18.55;4.90;;;7.50;99.90;;;;;;5028692;28;20112;-62
2023/04/26 07:48:07;;;;;;;12.40;3.90;;;7.60;99.90;;;;;;5030702;28;20365;-62
2023/04/26 07:50:32;;;;;;;22.27;7.47;;;7.70;99.90;;;;;;5028882;28;20036;-64
2023/04/26 07:52:58;;;;;;;19.00;7.47;;;7.90;99.90;;;;;;5030208;28;20079;-65
2023/04/26 07:55:24;;;;;;;16.08;5.28;;;7.90;99.90;;;;;;5030350;28;20021;-65
2023/04/26 07:57:50;;;;;;;26.05;5.00;;;8.00;99.90;;;;;;5028512;28;20496;-63
2023/04/26 08:00:17;;;;;;;20.98;5.15;;;8.00;99.90;;;;;;5026903;28;20029;-63
2023/04/26 08:02:45;;;;;;;18.17;5.57;;;8.00;99.90;;;;;;5025973;28;20109;-63
2023/04/26 08:05:11;;;;;;;15.43;5.25;;;8.00;99.90;;;;;;5033596;28;20362;-62
2023/04/26 08:07:37;;;;;;;15.60;5.35;;;7.80;99.90;;;;;;5030822;28;20397;-64
2023/04/26 08:10:03;;;;;;;18.55;6.22;;;8.00;99.90;;;;;;5030361;28;20036;-62
2023/04/26 08:12:28;;;;;;;12.20;4.47;;;8.10;99.90;;;;;;5027321;28;20123;-62
2023/04/26 08:14:54;;;;;;;16.60;4.82;;;8.10;99.90;;;;;;5030763;28;20132;-61
2023/04/26 08:17:19;;;;;;;21.88;4.28;;;8.10;99.90;;;;;;5029957;28;20087;-62
2023/04/26 08:19:45;;;;;;;11.55;3.80;;;8.20;99.90;;;;;;5035632;28;20373;-61
2023/04/26 08:22:10;;;;;;;15.38;3.90;;;8.00;99.90;;;;;;5029439;28;20402;-61
2023/04/26 08:24:36;;;;;;;10.20;4.13;;;8.10;99.90;;;;;;5031165;28;20052;-63
2023/04/26 08:27:02;;;;;;;13.43;4.55;;;8.20;99.90;;;;;;5030235;28;20029;-62
2023/04/26 08:29:28;;;;;;;16.40;5.35;;;8.30;99.90;;;;;;5029489;28;20041;-61
2023/04/26 08:31:53;;;;;;;20.33;4.95;;;8.20;99.90;;;;;;5025705;28;20018;-62
2023/04/26 08:34:19;;;;;;;28.67;5.47;;;8.30;99.90;;;;;;5035235;28;20493;-61
2023/04/26 08:36:44;;;;;;;18.38;6.35;;;8.40;99.90;;;;;;5030353;28;20063;-62
2023/04/26 08:39:13;;;;;;;16.08;5.32;;;8.40;99.90;;;;;;5026769;28;20064;-61
2023/04/26 08:41:51;;;;;;;21.80;5.78;;;8.40;99.90;;;;;;5027767;28;20036;-63
2023/04/26 08:44:23;;;;;;;18.75;5.78;;;8.40;99.90;;;;;;5026365;28;20087;-63
2023/04/26 08:47:10;;;;;;;18.42;5.28;;;8.40;99.90;;;;;;5029157;28;20116;-61
2023/04/26 08:49:41;;;;;;;17.25;4.85;;;8.50;99.90;;;;;;5028009;28;20497;-62
2023/04/26 08:52:11;;;;;;;13.45;4.93;;;8.60;99.90;;;;;;5032326;28;20100;-60
2023/04/26 08:54:38;;;;;;;13.63;5.03;;;8.80;99.90;;;;;;5029067;28;20021;-62
2023/04/26 08:57:06;;;;;;;11.77;4.60;;;8.70;99.90;;;;;;5027143;28;20041;-61
2023/04/26 08:59:34;;;;;;;15.48;5.38;;;8.90;99.90;;;;;;5023636;28;20018;-62
2023/04/26 09:02:03;;;;;;;12.60;3.92;;;9.10;99.90;;;;;;5028010;28;20091;-62
2023/04/26 09:04:30;;;;;;;14.25;4.45;;;9.40;99.90;;;;;;5025610;28;20113;-60
2023/04/26 09:07:00;;;;;;;14.68;4.55;;;9.00;99.90;;;;;;5028721;28;20014;-60
2023/04/26 09:09:29;;;;;;;13.80;4.43;;;8.80;99.90;;;;;;5026659;28;20080;-60
2023/04/26 09:11:58;;;;;;;14.95;4.47;;;8.90;99.90;;;;;;5026094;28;20048;-63
2023/04/26 09:14:24;;;;;;;17.65;4.80;;;8.90;99.90;;;;;;5025666;28;20029;-61
2023/04/26 09:16:51;;;;;;;15.85;5.05;;;9.00;99.90;;;;;;5027336;28;20061;-60
2023/04/26 09:19:17;;;;;;;9.38;4.78;;;9.10;99.90;;;;;;5026474;28;20380;-61
2023/04/26 09:21:45;;;;;;;18.83;4.05;;;9.00;99.90;;;;;;5023559;28;20045;-66
2023/04/26 09:24:11;;;;;;;10.57;3.50;;;9.10;99.90;;;;;;5019158;28;20030;-66
2023/04/26 09:26:37;;;;;;;9.95;3.53;;;9.20;99.90;;;;;;5025751;28;20079;-67
2023/04/26 09:29:12;;;;;;;12.85;2.33;;;9.50;99.90;;;;;;5023168;28;20404;-65
2023/04/26 09:31:47;;;;;;;14.68;3.97;;;9.40;99.90;;;;;;5020549;28;20052;-66
2023/04/26 09:34:14;;;;;;;8.50;3.08;;;9.50;99.90;;;;;;5021549;28;20037;-66
2023/04/26 09:36:49;;;;;;;10.18;2.40;;;9.50;99.90;;;;;;5020610;28;20018;-67
2023/04/26 09:39:33;;;;;;;6.22;2.65;;;9.40;99.90;;;;;;5025750;28;20018;-64
2023/04/26 09:41:59;;;;;;;7.80;2.55;;;9.40;99.90;;;;;;5019634;28;20033;-67
2023/04/26 09:44:25;;;;;;;4.88;2.28;;;9.50;99.90;;;;;;5025421;28;20443;-66
2023/04/26 09:47:10;;;;;;;11.27;2.30;;;9.50;99.90;;;;;;5025507;28;20064;-65
2023/04/26 09:49:43;;;;;;;11.57;2.50;;;9.50;99.90;;;;;;5027632;28;20029;-66
2023/04/26 09:52:09;;;;;;;4.65;1.77;;;9.40;99.90;;;;;;5027190;28;20029;-65
2023/04/26 09:54:40;;;;;;;10.05;2.10;;;9.30;99.90;;;;;;5031131;28;20037;-67
2023/04/26 09:57:06;;;;;;;9.27;2.65;;;9.20;99.90;;;;;;5022448;28;20409;-66
2023/04/26 09:59:43;;;;;;;11.77;2.25;;;9.40;99.90;;;;;;5028222;28;20025;-67
2023/04/26 10:02:19;;;;;;;4.53;1.58;;;9.50;99.90;;;;;;5026754;28;20029;-68
2023/04/26 10:04:47;;;;;;;3.95;2.15;;;9.30;99.30;;;;;;5027090;28;20448;-66
2023/04/26 10:07:14;;;;;;;10.38;2.63;;;9.60;99.90;;;;;;5030654;28;20496;-67
2023/04/26 10:09:41;;;;;;;6.85;2.28;;;9.60;99.90;;;;;;5023387;28;20076;-64
2023/04/26 10:12:12;;;;;;;6.88;3.30;;;9.80;99.90;;;;;;5026986;28;20112;-65
2023/04/26 10:14:38;;;;;;;15.48;3.53;;;10.00;99.90;;;;;;5031922;28;20061;-65
2023/04/26 10:17:04;;;;;;;16.83;3.63;;;10.20;99.90;;;;;;5029055;28;20067;-65
2023/04/26 10:19:35;;;;;;;15.02;2.90;;;10.00;99.90;;;;;;5030201;28;20029;-65
2023/04/26 10:22:12;;;;;;;10.48;2.85;;;10.50;99.90;;;;;;5028296;28;20427;-66
2023/04/26 10:24:38;;;;;;;11.27;2.78;;;9.90;99.90;;;;;;5027440;28;20137;-66
2023/04/26 10:27:04;;;;;;;6.90;3.05;;;10.10;99.90;;;;;;5012055;28;20148;-67
2023/04/26 10:29:55;;;;;;;14.32;3.67;;;10.00;99.90;;;;;;5027024;28;20060;-66
2023/04/26 10:32:21;;;;;;;10.20;3.58;;;10.30;99.90;;;;;;5033267;28;20092;-66
2023/04/26 10:35:12;;;;;;;8.07;2.90;;;10.60;99.90;;;;;;5031224;28;20037;-67
2023/04/26 10:37:59;;;;;;;15.48;4.03;;;10.90;99.90;;;;;;5027222;28;20504;-66
2023/04/26 10:40:39;;;;;;;14.55;4.18;;;10.40;99.50;;;;;;5023254;28;20113;-67
2023/04/26 10:43:07;;;;;;;29.55;4.00;;;10.20;99.90;;;;;;5022133;28;20579;-63
2023/04/26 10:45:33;;;;;;;9.88;4.53;;;10.80;99.90;;;;;;5025071;28;20041;-59
2023/04/26 10:48:16;;;;;;;8.98;3.58;;;11.00;97.80;;;;;;5031804;28;20034;-62
2023/04/26 10:51:00;;;;;;;11.95;3.28;;;11.00;97.10;;;;;;5024868;28;20504;-65
2023/04/26 10:53:32;;;;;;;11.52;3.13;;;11.30;97.10;;;;;;5030445;28;20053;-63
2023/04/26 10:55:57;;;;;;;5.60;2.42;;;11.90;99.00;;;;;;5031825;28;20033;-62
2023/04/26 10:58:27;;;;;;;4.50;3.13;;;11.90;94.20;;;;;;5032878;28;20025;-66
2023/04/26 11:01:12;;;;;;;9.13;2.85;;;12.00;92.90;;;;;;5026612;28;20076;-64
2023/04/26 11:03:39;;;;;;;4.72;2.58;;;11.60;91.20;;;;;;5030711;28;20031;-63
2023/04/26 11:06:14;;;;;;;11.88;2.97;;;11.40;94.70;;;;;;5030812;28;20029;-63
2023/04/26 11:08:40;;;;;;;10.30;2.97;;;11.50;95.40;;;;;;5031903;28;20037;-64
2023/04/26 11:11:07;;;;;;;14.75;4.50;;;11.70;96.40;;;;;;5029473;28;20400;-63
2023/04/26 11:13:41;;;;;;;6.88;3.33;;;11.70;97.10;;;;;;5031805;28;20032;-63
2023/04/26 11:16:08;;;;;;;10.52;3.67;;;11.60;98.20;;;;;;5032160;28;20033;-64
2023/04/26 11:18:37;;;;;;;10.30;3.65;;;11.50;98.30;;;;;;5030155;28;20017;-62
2023/04/26 11:21:04;;;;;;;18.83;3.08;;;11.70;99.90;;;;;;5032371;28;20484;-62
2023/04/26 11:23:30;;;;;;;17.10;3.50;;;11.40;97.20;;;;;;5029905;28;20025;-64
2023/04/26 11:26:03;;;;;;;10.23;3.35;;;11.40;95.10;;;;;;5025023;28;20021;-64
2023/04/26 11:28:30;;;;;;;7.38;3.08;;;11.20;95.50;;;;;;5028595;28;20041;-63
2023/04/26 11:30:56;;;;;;;9.93;3.05;;;11.40;94.30;;;;;;5028642;28;20049;-64
2023/04/26 11:33:22;;;;;;;10.38;2.85;;;11.50;94.20;;;;;;5029646;28;20518;-62
2023/04/26 11:35:52;;;;;;;8.73;2.70;;;11.60;94.20;;;;;;5034250;28;20120;-64
2023/04/26 11:38:21;;;;;;;11.02;3.05;;;11.90;94.60;;;;;;5033208;28;20096;-63
2023/04/26 11:41:01;;;;;;;8.60;2.97;;;12.10;93.10;;;;;;5034739;28;20025;-62
2023/04/26 11:43:36;;;;;;;7.07;2.55;;;12.30;93.30;;;;;;5023162;28;20497;-64
2023/04/26 11:46:04;;;;;;;13.55;2.75;;;12.30;92.40;;;;;;5032089;28;20125;-62
2023/04/26 11:48:30;;;;;;;10.73;2.88;;;12.90;92.80;;;;;;5026864;28;20021;-61
2023/04/26 11:50:58;;;;;;;10.30;2.85;;;13.20;89.70;;;;;;5029916;28;20041;-61
2023/04/26 11:53:23;;;;;;;8.00;3.40;;;13.40;90.20;;;;;;5029118;28;20401;-62
2023/04/26 11:55:49;;;;;;;10.20;4.80;;;13.20;90.70;;;;;;5028594;28;20013;-62
2023/04/26 11:58:16;;;;;;;12.00;3.20;;;12.70;91.60;;;;;;5028952;28;20359;-64
2023/04/26 12:00:57;;;;;;;14.90;4.07;;;12.30;92.20;;;;;;5025030;28;20448;-62
2023/04/26 12:03:23;;;;;;;13.88;3.33;;;11.80;92.90;;;;;;5023906;28;20096;-61
2023/04/26 12:05:55;;;;;;;15.10;3.45;;;11.80;94.20;;;;;;5026016;28;20044;-62
2023/04/26 12:08:25;;;;;;;11.88;3.22;;;11.90;93.30;;;;;;5028009;28;20028;-62
2023/04/26 12:10:51;;;;;;;10.93;3.92;;;11.80;94.40;;;;;;5031613;28;20018;-64
2023/04/26 12:13:18;;;;;;;7.13;3.10;;;11.60;93.60;;;;;;5026238;28;20113;-58
2023/04/26 12:15:46;;;;;;;4.60;2.95;;;11.70;95.10;;;;;;5028594;28;20034;-61
2023/04/26 12:18:11;;;;;;;16.65;3.88;;;12.00;96.40;;;;;;5024933;28;20026;-61
2023/04/26 12:20:41;;;;;;;12.85;3.65;;;12.30;93.10;;;;;;5027716;28;20046;-58
2023/04/26 12:23:09;;;;;;;10.27;3.28;;;12.60;92.10;;;;;;5029270;28;20029;-59
2023/04/26 12:25:37;;;;;;;5.85;3.08;;;13.00;92.50;;;;;;5026405;28;20060;-60
2023/04/26 12:28:04;;;;;;;12.85;3.45;;;13.30;91.50;;;;;;5031699;28;20079;-60
2023/04/26 12:30:30;;;;;;;8.35;3.15;;;13.30;91.30;;;;;;5023496;28;21124;-56
2023/04/26 12:32:56;;;;;;;7.18;2.72;;;13.40;90.40;;;;;;5026364;28;20045;-61
2023/04/26 12:35:23;;;;;;;21.00;3.50;;;13.30;90.30;;;;;;5028995;28;20025;-60
2023/04/26 12:37:52;;;;;;;12.60;3.92;;;13.40;88.80;;;;;;5026738;28;20055;-60
2023/04/26 12:40:18;;;;;;;12.40;3.30;;;13.40;88.10;;;;;;5025931;28;20037;-58
2023/04/26 12:42:47;;;;;;;7.60;3.20;;;13.70;90.10;;;;;;5026148;28;20052;-57
2023/04/26 12:45:13;;;;;;;9.85;3.08;;;14.00;85.00;;;;;;5025249;28;20028;-55
2023/04/26 12:47:40;;;;;;;5.25;2.70;;;13.90;84.90;;;;;;5030696;28;20039;-56